LFBU/ANG METAR and TAF weather

Enter ICAO airport designator
Station Type Date Time Source
LFBU METAR 2021/09/20 06:00 UTC NOAA

LFBU 200600Z AUTO 31004KT 9999 -RA BKN008/// BKN015/// BKN022/// ///CB 14/13 Q1020 TEMPO 4000 -RA BKN003 BKN010


Station Type Date Time Source
LFBU Decoded METAR 2021/09/20 06:00 UTC NOAA

Station name not available
Sep 20, 2021 - 02:00 AM EDT / 2021.09.20 0600 UTC
Wind: from the NW (310 degrees) at 5 MPH (4 KT):0
Visibility: greater than 7 mile(s):0
Sky conditions: mostly cloudy
Weather: light rain; Cumulonimbus clouds observed
Temperature: 57 F (14 C)
Dew Point: 55 F (13 C)
Relative Humidity: 93%
Pressure (altimeter): 30.12 in. Hg (1020 hPa)
ob: LFBU 200600Z AUTO 31004KT 9999 -RA BKN008/// BKN015/// BKN022/// ///CB 14/13 Q1020 TEMPO 4000 -RA BKN003 BKN010
cycle: 6

Station Type Date Time Source
LFBU TAF 2021/09/20 06:00 UTC NOAA

TAF LFBU 200500Z 2006/2106 26005KT CAVOK
TEMPO 2006/2010 4000 -RA BKN003 BKN010
BECMG 2006/2008 33007KT
BECMG 2010/2012 BKN040
BECMG 2100/2102 BKN010

Example: see airport list